Tulsa International Airport
KTUL : now visible

Airfield :











YOU CAN JOIN US ON...

 
LOGIN :

Register | Disclaimer

   EN    FR    IT 

 









Legend :    VFR   Marginal VFR   IFR   Intensive IFR   Very Intensive IFR
Visi :
Ceiling :
>= 8 km
>= 3000ft
5 to 8 km
1000 to 3000 ft
1500m to 5 km
500 to 1000 ft
800 to 1500m
200 to 500 ft
< 800m
< 200 ft
Symbols :   Thunderstorms  Fog  Heavy snow  Heavy precipitations  Wind > 20 kt






- Airport Elevation : 677 ft
- IATA code : TUL


KTUL - Tulsa International

CURRENT METAR :
  • 250353Z 36006KT 10SM SCT075 21/13 A2982 RMK AO2 SLP089 T02110133

EXPIRED METARs :
  • 250253Z 34007KT 10SM FEW050 SCT080 22/16 A2979 RMK AO2 SLP081 T02220156 52026
  • 250153Z 35008KT 10SM FEW040 SCT065 24/16 A2977 RMK AO2 SLP073 T02390161
  • 250053Z 35007KT 10SM SCT040 SCT065 26/17 A2974 RMK AO2 SLP064 T02560172

TAF KTUL
Valid from the 25 at 00:00 until the 26 at 00:00 UTC


242320Z 2500/2524 31011KT P6SM FEW050
FM250100 02005KT P6SM SCT250
FM251600 16011G20KT P6SM SCT035 SCT250
KZKC FIR / North America



MET'MAP, your aeronautical weather chart ! - Copyright ORBIFLY December 2007 - Disclaimer

ORBIFLY MET'MAP TEAM :

Programming & Development : Alexandra Zaïnal
Original concept : Baudouin d'Aumeries
Technical & hardware support : Manuel Goepfert
Assistance : Marc-Olivier Méhu




SOURCES & CREDITS :

   NOAA       Earth
Advisory